Sweeney, South Dakota
Current Conditions -  °F | °C
As of 7:53 AM on Thursday 29 Jan 2015 (Local Time) from KPIR Reporting Station
Overcast Overcast  
Wind Chill: -3°   Ceiling: 3000
Heat Index:   Visibility: 10mi
Dew Point: -3°   Wind: 12mph
Humidity: 70%   Direction: 340°NNW
Pressure: 30.4"   Gusts: NA
Location:  43.909°N, 100.128°W
Report Text: KPIR 291353Z AUTO 34010KT 10SM OVC030 02/M03 A3040 RMK AO2 SLP311 T00171033
Loading
Personal Weather Stations






























Interactive Weather Map New forecast layout! Learn more

10-Day Weather Forecast

Advertisements
Track Severe Weather on mobile